sensor_id;sensor_type;location;lat;lon;timestamp;P1;durP1;ratioP1;P2;durP2;ratioP2
26435;SDS011;15351;52.408;16.826;2024-02-21T00:02:44;20.90;;;7.40;;
26435;SDS011;15351;52.408;16.826;2024-02-21T00:05:10;22.10;;;7.50;;
26435;SDS011;15351;52.408;16.826;2024-02-21T00:07:36;21.30;;;7.20;;
26435;SDS011;15351;52.408;16.826;2024-02-21T00:10:03;25.10;;;8.20;;
26435;SDS011;15351;52.408;16.826;2024-02-21T00:12:32;21.90;;;7.70;;
26435;SDS011;15351;52.408;16.826;2024-02-21T00:15:10;22.00;;;7.90;;
26435;SDS011;15351;52.408;16.826;2024-02-21T00:17:40;23.10;;;7.90;;
26435;SDS011;15351;52.408;16.826;2024-02-21T00:20:14;22.80;;;8.50;;
26435;SDS011;15351;52.408;16.826;2024-02-21T00:25:53;22.50;;;8.40;;
26435;SDS011;15351;52.408;16.826;2024-02-21T00:28:19;24.00;;;8.40;;
26435;SDS011;15351;52.408;16.826;2024-02-21T00:30:46;24.00;;;9.10;;
26435;SDS011;15351;52.408;16.826;2024-02-21T00:33:32;25.10;;;8.50;;
26435;SDS011;15351;52.408;16.826;2024-02-21T00:36:00;25.50;;;8.90;;
26435;SDS011;15351;52.408;16.826;2024-02-21T00:38:26;24.80;;;9.30;;
26435;SDS011;15351;52.408;16.826;2024-02-21T00:40:52;24.40;;;9.00;;
26435;SDS011;15351;52.408;16.826;2024-02-21T00:43:19;23.50;;;8.70;;
26435;SDS011;15351;52.408;16.826;2024-02-21T00:45:49;25.00;;;8.80;;
26435;SDS011;15351;52.408;16.826;2024-02-21T00:48:16;29.20;;;8.90;;
26435;SDS011;15351;52.408;16.826;2024-02-21T00:53:23;22.40;;;8.20;;
26435;SDS011;15351;52.408;16.826;2024-02-21T00:55:49;23.80;;;7.80;;
26435;SDS011;15351;52.408;16.826;2024-02-21T00:58:15;26.40;;;8.10;;
26435;SDS011;15351;52.408;16.826;2024-02-21T01:00:42;24.50;;;8.20;;
26435;SDS011;15351;52.408;16.826;2024-02-21T01:03:08;22.70;;;8.30;;
26435;SDS011;15351;52.408;16.826;2024-02-21T01:05:38;24.90;;;8.50;;
26435;SDS011;15351;52.408;16.826;2024-02-21T01:08:04;22.20;;;9.10;;
26435;SDS011;15351;52.408;16.826;2024-02-21T01:10:30;22.10;;;9.20;;
26435;SDS011;15351;52.408;16.826;2024-02-21T01:12:58;23.20;;;9.30;;
26435;SDS011;15351;52.408;16.826;2024-02-21T01:15:24;24.50;;;9.50;;
26435;SDS011;15351;52.408;16.826;2024-02-21T01:17:50;24.40;;;9.30;;
26435;SDS011;15351;52.408;16.826;2024-02-21T01:20:20;21.10;;;8.80;;
26435;SDS011;15351;52.408;16.826;2024-02-21T01:22:47;22.90;;;8.60;;
26435;SDS011;15351;52.408;16.826;2024-02-21T01:25:13;23.70;;;8.90;;
26435;SDS011;15351;52.408;16.826;2024-02-21T01:27:45;25.40;;;9.40;;
26435;SDS011;15351;52.408;16.826;2024-02-21T01:30:11;22.10;;;9.30;;
26435;SDS011;15351;52.408;16.826;2024-02-21T01:32:37;26.80;;;9.30;;
26435;SDS011;15351;52.408;16.826;2024-02-21T01:35:04;21.10;;;8.80;;
26435;SDS011;15351;52.408;16.826;2024-02-21T01:37:30;22.10;;;9.10;;
26435;SDS011;15351;52.408;16.826;2024-02-21T01:39:56;22.60;;;9.10;;
26435;SDS011;15351;52.408;16.826;2024-02-21T01:42:22;25.10;;;9.10;;
26435;SDS011;15351;52.408;16.826;2024-02-21T01:44:48;24.70;;;9.10;;
26435;SDS011;15351;52.408;16.826;2024-02-21T01:50:47;22.00;;;9.10;;
26435;SDS011;15351;52.408;16.826;2024-02-21T01:53:16;21.60;;;9.30;;
26435;SDS011;15351;52.408;16.826;2024-02-21T01:55:46;26.60;;;9.10;;
26435;SDS011;15351;52.408;16.826;2024-02-21T01:58:13;21.50;;;9.00;;
26435;SDS011;15351;52.408;16.826;2024-02-21T02:00:44;23.10;;;8.10;;
26435;SDS011;15351;52.408;16.826;2024-02-21T02:03:13;24.30;;;9.10;;
26435;SDS011;15351;52.408;16.826;2024-02-21T02:05:47;22.10;;;9.00;;
26435;SDS011;15351;52.408;16.826;2024-02-21T02:08:23;21.70;;;9.30;;
26435;SDS011;15351;52.408;16.826;2024-02-21T02:10:49;23.30;;;8.80;;
26435;SDS011;15351;52.408;16.826;2024-02-21T02:13:16;21.40;;;8.50;;
26435;SDS011;15351;52.408;16.826;2024-02-21T02:15:46;19.90;;;7.80;;
26435;SDS011;15351;52.408;16.826;2024-02-21T02:18:34;25.50;;;8.50;;
26435;SDS011;15351;52.408;16.826;2024-02-21T02:21:00;24.70;;;8.80;;
26435;SDS011;15351;52.408;16.826;2024-02-21T02:23:29;23.50;;;8.50;;
26435;SDS011;15351;52.408;16.826;2024-02-21T02:25:57;22.90;;;8.70;;
26435;SDS011;15351;52.408;16.826;2024-02-21T02:28:39;20.80;;;8.30;;
26435;SDS011;15351;52.408;16.826;2024-02-21T02:31:14;21.80;;;8.90;;
26435;SDS011;15351;52.408;16.826;2024-02-21T02:34:11;24.60;;;9.40;;
26435;SDS011;15351;52.408;16.826;2024-02-21T02:36:37;23.10;;;8.60;;
26435;SDS011;15351;52.408;16.826;2024-02-21T02:39:06;25.10;;;8.60;;
26435;SDS011;15351;52.408;16.826;2024-02-21T02:41:44;20.00;;;8.00;;
26435;SDS011;15351;52.408;16.826;2024-02-21T02:44:14;21.60;;;8.40;;
26435;SDS011;15351;52.408;16.826;2024-02-21T02:46:40;23.30;;;8.10;;
26435;SDS011;15351;52.408;16.826;2024-02-21T02:49:10;26.20;;;8.40;;
26435;SDS011;15351;52.408;16.826;2024-02-21T02:51:36;20.40;;;8.40;;
26435;SDS011;15351;52.408;16.826;2024-02-21T02:54:02;20.70;;;8.20;;
26435;SDS011;15351;52.408;16.826;2024-02-21T02:56:29;23.00;;;8.20;;
26435;SDS011;15351;52.408;16.826;2024-02-21T02:58:55;22.10;;;8.30;;
26435;SDS011;15351;52.408;16.826;2024-02-21T03:01:21;19.30;;;7.90;;
26435;SDS011;15351;52.408;16.826;2024-02-21T03:03:47;19.70;;;7.80;;
26435;SDS011;15351;52.408;16.826;2024-02-21T03:06:13;22.60;;;8.60;;
26435;SDS011;15351;52.408;16.826;2024-02-21T03:08:40;22.80;;;8.80;;
26435;SDS011;15351;52.408;16.826;2024-02-21T03:11:12;27.10;;;8.80;;
26435;SDS011;15351;52.408;16.826;2024-02-21T03:14:03;22.00;;;8.20;;
26435;SDS011;15351;52.408;16.826;2024-02-21T03:16:39;21.30;;;7.70;;
26435;SDS011;15351;52.408;16.826;2024-02-21T03:19:44;22.50;;;8.70;;
26435;SDS011;15351;52.408;16.826;2024-02-21T03:22:31;23.10;;;8.40;;
26435;SDS011;15351;52.408;16.826;2024-02-21T03:25:10;23.00;;;8.30;;
26435;SDS011;15351;52.408;16.826;2024-02-21T03:27:50;21.90;;;8.40;;
26435;SDS011;15351;52.408;16.826;2024-02-21T03:30:48;21.80;;;8.20;;
26435;SDS011;15351;52.408;16.826;2024-02-21T03:33:14;19.00;;;7.70;;
26435;SDS011;15351;52.408;16.826;2024-02-21T03:35:40;20.30;;;8.10;;
26435;SDS011;15351;52.408;16.826;2024-02-21T03:38:06;20.40;;;7.40;;
26435;SDS011;15351;52.408;16.826;2024-02-21T03:41:06;20.00;;;7.80;;
26435;SDS011;15351;52.408;16.826;2024-02-21T03:43:32;23.10;;;9.00;;
26435;SDS011;15351;52.408;16.826;2024-02-21T03:48:54;20.90;;;8.20;;
26435;SDS011;15351;52.408;16.826;2024-02-21T03:51:20;21.00;;;8.80;;
26435;SDS011;15351;52.408;16.826;2024-02-21T03:53:51;21.10;;;8.40;;
26435;SDS011;15351;52.408;16.826;2024-02-21T03:59:07;21.30;;;8.20;;
26435;SDS011;15351;52.408;16.826;2024-02-21T04:01:34;18.90;;;8.00;;
26435;SDS011;15351;52.408;16.826;2024-02-21T04:04:04;22.40;;;8.00;;
26435;SDS011;15351;52.408;16.826;2024-02-21T04:06:30;21.20;;;8.30;;
26435;SDS011;15351;52.408;16.826;2024-02-21T04:08:57;24.20;;;9.00;;
26435;SDS011;15351;52.408;16.826;2024-02-21T04:11:50;22.00;;;8.50;;
26435;SDS011;15351;52.408;16.826;2024-02-21T04:17:27;22.70;;;8.90;;
26435;SDS011;15351;52.408;16.826;2024-02-21T04:20:04;23.30;;;8.80;;
26435;SDS011;15351;52.408;16.826;2024-02-21T04:22:52;23.50;;;9.20;;
26435;SDS011;15351;52.408;16.826;2024-02-21T04:25:24;20.80;;;8.70;;
26435;SDS011;15351;52.408;16.826;2024-02-21T04:28:15;23.00;;;9.30;;
26435;SDS011;15351;52.408;16.826;2024-02-21T04:30:51;24.70;;;9.00;;
26435;SDS011;15351;52.408;16.826;2024-02-21T04:33:20;21.00;;;8.40;;
26435;SDS011;15351;52.408;16.826;2024-02-21T04:35:46;19.80;;;8.40;;
26435;SDS011;15351;52.408;16.826;2024-02-21T04:38:12;22.10;;;8.10;;
26435;SDS011;15351;52.408;16.826;2024-02-21T04:40:40;20.80;;;7.70;;
26435;SDS011;15351;52.408;16.826;2024-02-21T04:43:06;19.90;;;7.60;;
26435;SDS011;15351;52.408;16.826;2024-02-21T04:45:32;20.50;;;7.30;;
26435;SDS011;15351;52.408;16.826;2024-02-21T04:47:58;20.40;;;7.30;;
26435;SDS011;15351;52.408;16.826;2024-02-21T04:50:25;21.20;;;7.70;;
26435;SDS011;15351;52.408;16.826;2024-02-21T04:52:51;21.70;;;8.00;;
26435;SDS011;15351;52.408;16.826;2024-02-21T04:55:20;18.70;;;7.30;;
26435;SDS011;15351;52.408;16.826;2024-02-21T04:57:46;19.30;;;7.70;;
26435;SDS011;15351;52.408;16.826;2024-02-21T05:00:13;24.00;;;9.00;;
26435;SDS011;15351;52.408;16.826;2024-02-21T05:05:19;23.00;;;8.90;;
26435;SDS011;15351;52.408;16.826;2024-02-21T05:08:06;25.40;;;9.10;;
26435;SDS011;15351;52.408;16.826;2024-02-21T05:10:53;23.70;;;9.60;;
26435;SDS011;15351;52.408;16.826;2024-02-21T05:13:24;21.80;;;9.10;;
26435;SDS011;15351;52.408;16.826;2024-02-21T05:15:53;22.00;;;8.60;;
26435;SDS011;15351;52.408;16.826;2024-02-21T05:19:00;18.20;;;7.90;;
26435;SDS011;15351;52.408;16.826;2024-02-21T05:21:27;20.70;;;7.40;;
26435;SDS011;15351;52.408;16.826;2024-02-21T05:23:54;20.20;;;7.40;;
26435;SDS011;15351;52.408;16.826;2024-02-21T05:26:23;20.30;;;7.60;;
26435;SDS011;15351;52.408;16.826;2024-02-21T05:28:50;20.30;;;6.90;;
26435;SDS011;15351;52.408;16.826;2024-02-21T05:32:01;19.20;;;7.60;;
26435;SDS011;15351;52.408;16.826;2024-02-21T05:34:29;20.50;;;8.10;;
26435;SDS011;15351;52.408;16.826;2024-02-21T05:36:56;20.10;;;7.90;;
26435;SDS011;15351;52.408;16.826;2024-02-21T05:39:23;18.90;;;7.40;;
26435;SDS011;15351;52.408;16.826;2024-02-21T05:41:49;17.10;;;7.70;;
26435;SDS011;15351;52.408;16.826;2024-02-21T05:44:19;20.60;;;8.20;;
26435;SDS011;15351;52.408;16.826;2024-02-21T05:46:47;18.20;;;7.50;;
26435;SDS011;15351;52.408;16.826;2024-02-21T05:49:16;19.50;;;8.00;;
26435;SDS011;15351;52.408;16.826;2024-02-21T05:51:43;21.30;;;8.20;;
26435;SDS011;15351;52.408;16.826;2024-02-21T05:54:09;20.40;;;8.20;;
26435;SDS011;15351;52.408;16.826;2024-02-21T05:56:35;19.90;;;7.70;;
26435;SDS011;15351;52.408;16.826;2024-02-21T05:59:01;22.00;;;8.50;;
26435;SDS011;15351;52.408;16.826;2024-02-21T06:01:28;22.60;;;8.70;;
26435;SDS011;15351;52.408;16.826;2024-02-21T06:04:02;19.20;;;7.80;;
26435;SDS011;15351;52.408;16.826;2024-02-21T06:06:28;17.60;;;7.80;;
26435;SDS011;15351;52.408;16.826;2024-02-21T06:08:55;19.80;;;8.00;;
26435;SDS011;15351;52.408;16.826;2024-02-21T06:11:21;21.10;;;8.20;;
26435;SDS011;15351;52.408;16.826;2024-02-21T06:13:47;23.10;;;8.30;;
26435;SDS011;15351;52.408;16.826;2024-02-21T06:16:13;19.10;;;8.00;;
26435;SDS011;15351;52.408;16.826;2024-02-21T06:18:40;21.30;;;8.60;;
26435;SDS011;15351;52.408;16.826;2024-02-21T06:21:06;19.80;;;8.30;;
26435;SDS011;15351;52.408;16.826;2024-02-21T06:23:42;21.50;;;8.70;;
26435;SDS011;15351;52.408;16.826;2024-02-21T06:26:18;23.10;;;8.60;;
26435;SDS011;15351;52.408;16.826;2024-02-21T06:29:05;21.30;;;8.70;;
26435;SDS011;15351;52.408;16.826;2024-02-21T06:31:31;21.70;;;8.50;;
26435;SDS011;15351;52.408;16.826;2024-02-21T06:33:57;19.70;;;8.50;;
26435;SDS011;15351;52.408;16.826;2024-02-21T06:36:23;19.10;;;8.20;;
26435;SDS011;15351;52.408;16.826;2024-02-21T06:38:49;21.00;;;9.80;;
26435;SDS011;15351;52.408;16.826;2024-02-21T06:44:05;26.30;;;11.60;;
26435;SDS011;15351;52.408;16.826;2024-02-21T06:46:40;28.60;;;12.50;;
26435;SDS011;15351;52.408;16.826;2024-02-21T06:49:06;28.10;;;12.50;;
26435;SDS011;15351;52.408;16.826;2024-02-21T06:51:32;24.80;;;11.90;;
26435;SDS011;15351;52.408;16.826;2024-02-21T06:54:00;25.20;;;11.80;;
26435;SDS011;15351;52.408;16.826;2024-02-21T06:56:26;26.50;;;11.30;;
26435;SDS011;15351;52.408;16.826;2024-02-21T06:58:54;24.10;;;11.50;;
26435;SDS011;15351;52.408;16.826;2024-02-21T07:01:21;25.90;;;11.00;;
26435;SDS011;15351;52.408;16.826;2024-02-21T07:03:50;24.60;;;10.60;;
26435;SDS011;15351;52.408;16.826;2024-02-21T07:06:16;23.40;;;10.50;;
26435;SDS011;15351;52.408;16.826;2024-02-21T07:08:43;24.00;;;10.60;;
26435;SDS011;15351;52.408;16.826;2024-02-21T07:11:10;26.40;;;10.60;;
26435;SDS011;15351;52.408;16.826;2024-02-21T07:13:36;27.10;;;10.30;;
26435;SDS011;15351;52.408;16.826;2024-02-21T07:16:06;22.10;;;10.10;;
26435;SDS011;15351;52.408;16.826;2024-02-21T07:18:45;24.30;;;9.40;;
26435;SDS011;15351;52.408;16.826;2024-02-21T07:21:32;20.40;;;9.30;;
26435;SDS011;15351;52.408;16.826;2024-02-21T07:24:15;21.80;;;9.10;;
26435;SDS011;15351;52.408;16.826;2024-02-21T07:26:41;21.90;;;9.70;;
26435;SDS011;15351;52.408;16.826;2024-02-21T07:29:17;20.40;;;8.70;;
26435;SDS011;15351;52.408;16.826;2024-02-21T07:31:53;20.10;;;8.70;;
26435;SDS011;15351;52.408;16.826;2024-02-21T07:34:50;22.20;;;8.80;;
26435;SDS011;15351;52.408;16.826;2024-02-21T07:37:25;22.20;;;8.70;;
26435;SDS011;15351;52.408;16.826;2024-02-21T07:40:04;18.10;;;7.70;;
26435;SDS011;15351;52.408;16.826;2024-02-21T07:42:44;19.80;;;8.00;;
26435;SDS011;15351;52.408;16.826;2024-02-21T07:45:28;18.10;;;8.00;;
26435;SDS011;15351;52.408;16.826;2024-02-21T07:48:36;20.10;;;8.90;;
26435;SDS011;15351;52.408;16.826;2024-02-21T07:51:11;19.90;;;8.90;;
26435;SDS011;15351;52.408;16.826;2024-02-21T07:56:48;21.30;;;8.80;;
26435;SDS011;15351;52.408;16.826;2024-02-21T07:59:14;20.80;;;9.40;;
26435;SDS011;15351;52.408;16.826;2024-02-21T08:01:41;23.70;;;10.20;;
26435;SDS011;15351;52.408;16.826;2024-02-21T08:04:12;23.20;;;10.20;;
26435;SDS011;15351;52.408;16.826;2024-02-21T08:06:38;23.50;;;9.50;;
26435;SDS011;15351;52.408;16.826;2024-02-21T08:09:07;20.30;;;8.40;;
26435;SDS011;15351;52.408;16.826;2024-02-21T08:11:33;18.30;;;7.90;;
26435;SDS011;15351;52.408;16.826;2024-02-21T08:13:59;18.50;;;8.70;;
26435;SDS011;15351;52.408;16.826;2024-02-21T08:16:38;17.00;;;7.80;;
26435;SDS011;15351;52.408;16.826;2024-02-21T08:19:04;21.10;;;8.00;;
26435;SDS011;15351;52.408;16.826;2024-02-21T08:21:30;18.90;;;8.30;;
26435;SDS011;15351;52.408;16.826;2024-02-21T08:23:56;18.80;;;8.00;;
26435;SDS011;15351;52.408;16.826;2024-02-21T08:26:23;20.80;;;8.00;;
26435;SDS011;15351;52.408;16.826;2024-02-21T08:28:49;16.80;;;7.90;;
26435;SDS011;15351;52.408;16.826;2024-02-21T08:31:20;19.00;;;8.00;;
26435;SDS011;15351;52.408;16.826;2024-02-21T08:33:46;20.30;;;7.90;;
26435;SDS011;15351;52.408;16.826;2024-02-21T08:36:19;19.00;;;8.20;;
26435;SDS011;15351;52.408;16.826;2024-02-21T08:38:45;18.10;;;7.80;;
26435;SDS011;15351;52.408;16.826;2024-02-21T08:41:12;19.00;;;8.00;;
26435;SDS011;15351;52.408;16.826;2024-02-21T08:43:52;18.50;;;8.40;;
26435;SDS011;15351;52.408;16.826;2024-02-21T08:46:20;17.60;;;8.00;;
26435;SDS011;15351;52.408;16.826;2024-02-21T08:48:54;20.90;;;7.80;;
26435;SDS011;15351;52.408;16.826;2024-02-21T08:51:20;15.60;;;7.80;;
26435;SDS011;15351;52.408;16.826;2024-02-21T08:53:47;18.30;;;8.20;;
26435;SDS011;15351;52.408;16.826;2024-02-21T08:56:14;18.00;;;8.00;;
26435;SDS011;15351;52.408;16.826;2024-02-21T08:59:01;18.80;;;9.00;;
26435;SDS011;15351;52.408;16.826;2024-02-21T09:01:31;16.80;;;7.50;;
26435;SDS011;15351;52.408;16.826;2024-02-21T09:03:57;17.60;;;7.80;;
26435;SDS011;15351;52.408;16.826;2024-02-21T09:06:31;16.50;;;7.90;;
26435;SDS011;15351;52.408;16.826;2024-02-21T09:12:01;17.30;;;8.30;;
26435;SDS011;15351;52.408;16.826;2024-02-21T09:14:40;18.70;;;7.90;;
26435;SDS011;15351;52.408;16.826;2024-02-21T09:17:17;18.80;;;8.70;;
26435;SDS011;15351;52.408;16.826;2024-02-21T09:19:51;18.50;;;8.50;;
26435;SDS011;15351;52.408;16.826;2024-02-21T09:22:17;16.70;;;8.30;;
26435;SDS011;15351;52.408;16.826;2024-02-21T09:24:44;17.10;;;8.20;;
26435;SDS011;15351;52.408;16.826;2024-02-21T09:27:11;17.40;;;8.40;;
26435;SDS011;15351;52.408;16.826;2024-02-21T09:29:40;18.90;;;9.20;;
26435;SDS011;15351;52.408;16.826;2024-02-21T09:32:24;18.40;;;8.50;;
26435;SDS011;15351;52.408;16.826;2024-02-21T09:34:51;19.40;;;8.90;;
26435;SDS011;15351;52.408;16.826;2024-02-21T09:37:18;18.40;;;9.10;;
26435;SDS011;15351;52.408;16.826;2024-02-21T09:39:44;16.40;;;8.90;;
26435;SDS011;15351;52.408;16.826;2024-02-21T09:42:12;17.10;;;8.30;;
26435;SDS011;15351;52.408;16.826;2024-02-21T09:44:38;18.40;;;8.80;;
26435;SDS011;15351;52.408;16.826;2024-02-21T09:50:38;17.20;;;8.40;;
26435;SDS011;15351;52.408;16.826;2024-02-21T09:53:06;17.90;;;8.30;;
26435;SDS011;15351;52.408;16.826;2024-02-21T09:55:54;17.90;;;8.70;;
26435;SDS011;15351;52.408;16.826;2024-02-21T09:58:20;19.80;;;9.60;;
26435;SDS011;15351;52.408;16.826;2024-02-21T10:00:48;21.70;;;10.70;;
26435;SDS011;15351;52.408;16.826;2024-02-21T10:05:58;21.50;;;10.30;;
26435;SDS011;15351;52.408;16.826;2024-02-21T10:09:29;20.60;;;9.90;;
26435;SDS011;15351;52.408;16.826;2024-02-21T10:12:07;19.10;;;9.30;;
26435;SDS011;15351;52.408;16.826;2024-02-21T10:14:37;21.90;;;9.90;;
26435;SDS011;15351;52.408;16.826;2024-02-21T10:17:04;18.00;;;10.50;;
26435;SDS011;15351;52.408;16.826;2024-02-21T10:19:35;22.40;;;10.70;;
26435;SDS011;15351;52.408;16.826;2024-02-21T10:22:02;22.00;;;10.40;;
26435;SDS011;15351;52.408;16.826;2024-02-21T10:27:51;21.80;;;10.40;;
26435;SDS011;15351;52.408;16.826;2024-02-21T10:30:23;20.30;;;10.10;;
26435;SDS011;15351;52.408;16.826;2024-02-21T10:33:01;19.50;;;10.00;;
26435;SDS011;15351;52.408;16.826;2024-02-21T10:35:41;18.20;;;9.50;;
26435;SDS011;15351;52.408;16.826;2024-02-21T10:38:07;18.40;;;8.90;;
26435;SDS011;15351;52.408;16.826;2024-02-21T10:40:33;19.20;;;9.00;;
26435;SDS011;15351;52.408;16.826;2024-02-21T10:43:00;16.80;;;8.60;;
26435;SDS011;15351;52.408;16.826;2024-02-21T10:45:36;19.10;;;9.10;;
26435;SDS011;15351;52.408;16.826;2024-02-21T10:48:22;19.30;;;8.70;;
26435;SDS011;15351;52.408;16.826;2024-02-21T10:51:02;18.60;;;8.70;;
26435;SDS011;15351;52.408;16.826;2024-02-21T10:56:59;19.60;;;8.90;;
26435;SDS011;15351;52.408;16.826;2024-02-21T10:59:49;19.30;;;9.00;;
26435;SDS011;15351;52.408;16.826;2024-02-21T11:02:24;18.80;;;8.70;;
26435;SDS011;15351;52.408;16.826;2024-02-21T11:04:57;21.00;;;9.30;;
26435;SDS011;15351;52.408;16.826;2024-02-21T11:07:24;16.90;;;8.50;;
26435;SDS011;15351;52.408;16.826;2024-02-21T11:09:51;19.00;;;9.00;;
26435;SDS011;15351;52.408;16.826;2024-02-21T11:12:21;17.90;;;8.60;;
26435;SDS011;15351;52.408;16.826;2024-02-21T11:14:49;16.50;;;8.20;;
26435;SDS011;15351;52.408;16.826;2024-02-21T11:17:18;16.00;;;8.50;;
26435;SDS011;15351;52.408;16.826;2024-02-21T11:19:52;19.80;;;8.90;;
26435;SDS011;15351;52.408;16.826;2024-02-21T11:22:19;18.10;;;9.00;;
26435;SDS011;15351;52.408;16.826;2024-02-21T11:24:48;19.20;;;8.70;;
26435;SDS011;15351;52.408;16.826;2024-02-21T11:27:21;16.40;;;9.40;;
26435;SDS011;15351;52.408;16.826;2024-02-21T11:29:55;18.50;;;9.60;;
26435;SDS011;15351;52.408;16.826;2024-02-21T11:32:22;17.10;;;9.50;;
26435;SDS011;15351;52.408;16.826;2024-02-21T11:34:56;19.20;;;9.30;;
26435;SDS011;15351;52.408;16.826;2024-02-21T11:37:35;20.10;;;9.80;;
26435;SDS011;15351;52.408;16.826;2024-02-21T11:40:03;20.90;;;9.70;;
26435;SDS011;15351;52.408;16.826;2024-02-21T11:42:30;20.20;;;10.10;;
26435;SDS011;15351;52.408;16.826;2024-02-21T11:44:56;19.90;;;9.70;;
26435;SDS011;15351;52.408;16.826;2024-02-21T11:47:23;21.10;;;10.30;;
26435;SDS011;15351;52.408;16.826;2024-02-21T11:49:50;18.00;;;9.80;;
26435;SDS011;15351;52.408;16.826;2024-02-21T11:52:23;21.50;;;10.10;;
26435;SDS011;15351;52.408;16.826;2024-02-21T11:55:03;18.30;;;10.60;;
26435;SDS011;15351;52.408;16.826;2024-02-21T11:57:30;20.80;;;10.20;;
26435;SDS011;15351;52.408;16.826;2024-02-21T11:59:56;19.40;;;10.30;;
26435;SDS011;15351;52.408;16.826;2024-02-21T12:02:23;21.80;;;10.70;;
26435;SDS011;15351;52.408;16.826;2024-02-21T12:04:49;18.20;;;10.30;;
26435;SDS011;15351;52.408;16.826;2024-02-21T12:07:16;22.20;;;9.90;;
26435;SDS011;15351;52.408;16.826;2024-02-21T12:09:43;21.00;;;10.50;;
26435;SDS011;15351;52.408;16.826;2024-02-21T12:12:09;20.40;;;10.30;;
26435;SDS011;15351;52.408;16.826;2024-02-21T12:14:35;19.80;;;10.10;;
26435;SDS011;15351;52.408;16.826;2024-02-21T12:17:02;20.00;;;10.10;;
26435;SDS011;15351;52.408;16.826;2024-02-21T12:19:34;18.70;;;10.00;;
26435;SDS011;15351;52.408;16.826;2024-02-21T12:22:00;22.70;;;10.60;;
26435;SDS011;15351;52.408;16.826;2024-02-21T12:24:28;21.10;;;10.70;;
26435;SDS011;15351;52.408;16.826;2024-02-21T12:26:55;21.90;;;10.50;;
26435;SDS011;15351;52.408;16.826;2024-02-21T12:29:22;27.50;;;11.70;;
26435;SDS011;15351;52.408;16.826;2024-02-21T12:32:07;21.10;;;10.90;;
26435;SDS011;15351;52.408;16.826;2024-02-21T12:34:33;20.20;;;10.60;;
26435;SDS011;15351;52.408;16.826;2024-02-21T12:37:01;21.30;;;10.50;;
26435;SDS011;15351;52.408;16.826;2024-02-21T12:39:29;21.30;;;11.10;;
26435;SDS011;15351;52.408;16.826;2024-02-21T12:41:55;18.40;;;10.20;;
26435;SDS011;15351;52.408;16.826;2024-02-21T12:44:24;20.90;;;11.00;;
26435;SDS011;15351;52.408;16.826;2024-02-21T12:46:50;16.80;;;10.10;;
26435;SDS011;15351;52.408;16.826;2024-02-21T12:49:19;19.80;;;10.60;;
26435;SDS011;15351;52.408;16.826;2024-02-21T12:51:46;17.60;;;9.90;;
26435;SDS011;15351;52.408;16.826;2024-02-21T12:54:12;19.80;;;10.00;;
26435;SDS011;15351;52.408;16.826;2024-02-21T12:56:39;17.90;;;10.60;;
26435;SDS011;15351;52.408;16.826;2024-02-21T12:59:08;19.80;;;10.40;;
26435;SDS011;15351;52.408;16.826;2024-02-21T13:01:37;20.40;;;11.00;;
26435;SDS011;15351;52.408;16.826;2024-02-21T13:04:03;21.00;;;10.40;;
26435;SDS011;15351;52.408;16.826;2024-02-21T13:06:29;19.50;;;10.00;;
26435;SDS011;15351;52.408;16.826;2024-02-21T13:08:56;21.00;;;10.10;;
26435;SDS011;15351;52.408;16.826;2024-02-21T13:11:22;19.00;;;9.70;;
26435;SDS011;15351;52.408;16.826;2024-02-21T13:13:48;18.40;;;10.30;;
26435;SDS011;15351;52.408;16.826;2024-02-21T13:16:14;19.10;;;10.50;;
26435;SDS011;15351;52.408;16.826;2024-02-21T13:19:49;19.90;;;10.80;;
26435;SDS011;15351;52.408;16.826;2024-02-21T13:22:15;21.30;;;10.60;;
26435;SDS011;15351;52.408;16.826;2024-02-21T13:24:46;20.80;;;10.70;;
26435;SDS011;15351;52.408;16.826;2024-02-21T13:27:13;20.80;;;11.00;;
26435;SDS011;15351;52.408;16.826;2024-02-21T13:29:39;18.70;;;10.50;;
26435;SDS011;15351;52.408;16.826;2024-02-21T13:32:09;18.20;;;10.30;;
26435;SDS011;15351;52.408;16.826;2024-02-21T13:34:35;18.80;;;9.90;;
26435;SDS011;15351;52.408;16.826;2024-02-21T13:37:01;18.30;;;9.90;;
26435;SDS011;15351;52.408;16.826;2024-02-21T13:39:28;17.00;;;9.80;;
26435;SDS011;15351;52.408;16.826;2024-02-21T13:41:54;20.30;;;10.20;;
26435;SDS011;15351;52.408;16.826;2024-02-21T13:44:20;19.10;;;9.80;;
26435;SDS011;15351;52.408;16.826;2024-02-21T13:46:46;17.40;;;9.60;;
26435;SDS011;15351;52.408;16.826;2024-02-21T13:49:12;19.50;;;9.90;;
26435;SDS011;15351;52.408;16.826;2024-02-21T13:51:38;18.00;;;9.70;;
26435;SDS011;15351;52.408;16.826;2024-02-21T13:54:06;17.30;;;10.50;;
26435;SDS011;15351;52.408;16.826;2024-02-21T13:56:34;20.00;;;9.80;;
26435;SDS011;15351;52.408;16.826;2024-02-21T13:59:01;19.80;;;9.70;;
26435;SDS011;15351;52.408;16.826;2024-02-21T14:01:27;19.40;;;9.90;;
26435;SDS011;15351;52.408;16.826;2024-02-21T14:03:57;17.30;;;9.60;;
26435;SDS011;15351;52.408;16.826;2024-02-21T14:06:23;17.00;;;9.30;;
26435;SDS011;15351;52.408;16.826;2024-02-21T14:08:50;17.60;;;9.90;;
26435;SDS011;15351;52.408;16.826;2024-02-21T14:11:16;16.30;;;8.80;;
26435;SDS011;15351;52.408;16.826;2024-02-21T14:13:42;14.90;;;8.90;;
26435;SDS011;15351;52.408;16.826;2024-02-21T14:16:09;19.50;;;9.10;;
26435;SDS011;15351;52.408;16.826;2024-02-21T14:18:39;17.10;;;9.90;;
26435;SDS011;15351;52.408;16.826;2024-02-21T14:21:08;19.50;;;10.90;;
26435;SDS011;15351;52.408;16.826;2024-02-21T14:23:39;18.90;;;11.00;;
26435;SDS011;15351;52.408;16.826;2024-02-21T14:26:05;18.70;;;10.80;;
26435;SDS011;15351;52.408;16.826;2024-02-21T14:28:32;17.50;;;10.10;;
26435;SDS011;15351;52.408;16.826;2024-02-21T14:30:59;18.60;;;9.80;;
26435;SDS011;15351;52.408;16.826;2024-02-21T14:33:29;16.60;;;9.70;;
26435;SDS011;15351;52.408;16.826;2024-02-21T14:36:21;18.80;;;9.40;;
26435;SDS011;15351;52.408;16.826;2024-02-21T14:38:49;16.30;;;9.70;;
26435;SDS011;15351;52.408;16.826;2024-02-21T14:41:17;17.10;;;9.40;;
26435;SDS011;15351;52.408;16.826;2024-02-21T14:43:44;17.00;;;9.40;;
26435;SDS011;15351;52.408;16.826;2024-02-21T14:46:13;17.20;;;9.00;;
26435;SDS011;15351;52.408;16.826;2024-02-21T14:48:40;15.30;;;8.80;;
26435;SDS011;15351;52.408;16.826;2024-02-21T14:51:06;17.50;;;9.40;;
26435;SDS011;15351;52.408;16.826;2024-02-21T14:53:32;13.50;;;9.10;;
26435;SDS011;15351;52.408;16.826;2024-02-21T14:55:58;17.60;;;10.10;;
26435;SDS011;15351;52.408;16.826;2024-02-21T14:58:24;15.40;;;9.50;;
26435;SDS011;15351;52.408;16.826;2024-02-21T15:00:50;17.30;;;9.20;;
26435;SDS011;15351;52.408;16.826;2024-02-21T15:03:16;14.80;;;8.80;;
26435;SDS011;15351;52.408;16.826;2024-02-21T15:05:46;14.30;;;8.80;;
26435;SDS011;15351;52.408;16.826;2024-02-21T15:08:13;15.20;;;9.10;;
26435;SDS011;15351;52.408;16.826;2024-02-21T15:10:43;13.90;;;8.90;;
26435;SDS011;15351;52.408;16.826;2024-02-21T15:16:00;18.00;;;9.40;;
26435;SDS011;15351;52.408;16.826;2024-02-21T15:18:27;18.90;;;10.10;;
26435;SDS011;15351;52.408;16.826;2024-02-21T15:20:53;19.60;;;10.60;;
26435;SDS011;15351;52.408;16.826;2024-02-21T15:23:21;18.90;;;10.80;;
26435;SDS011;15351;52.408;16.826;2024-02-21T15:25:51;18.70;;;11.20;;